sensor_id;sensor_type;location;lat;lon;timestamp;pressure;altitude;pressure_sealevel;temperature;humidity
54816;BME280;40715;55.752;37.884;2023-02-02T00:01:22;97982.63;;;28.67;26.21
54816;BME280;40715;55.752;37.884;2023-02-02T00:03:50;97980.56;;;28.69;25.98
54816;BME280;40715;55.752;37.884;2023-02-02T00:06:22;97980.19;;;28.72;26.23
54816;BME280;40715;55.752;37.884;2023-02-02T00:08:49;97990.44;;;28.77;26.14
54816;BME280;40715;55.752;37.884;2023-02-02T00:11:18;97983.81;;;28.80;25.76
54816;BME280;40715;55.752;37.884;2023-02-02T00:13:45;97992.22;;;28.85;25.96
54816;BME280;40715;55.752;37.884;2023-02-02T00:18:59;97984.09;;;28.85;26.12
54816;BME280;40715;55.752;37.884;2023-02-02T00:21:27;97979.03;;;28.82;26.38
54816;BME280;40715;55.752;37.884;2023-02-02T00:23:54;97975.25;;;28.76;24.97
54816;BME280;40715;55.752;37.884;2023-02-02T00:26:21;97977.47;;;28.72;25.40
54816;BME280;40715;55.752;37.884;2023-02-02T00:28:48;97969.75;;;28.69;25.76
54816;BME280;40715;55.752;37.884;2023-02-02T00:31:15;97972.16;;;28.64;25.83
54816;BME280;40715;55.752;37.884;2023-02-02T00:33:46;97969.25;;;28.66;26.02
54816;BME280;40715;55.752;37.884;2023-02-02T00:36:14;97970.84;;;28.60;24.89
54816;BME280;40715;55.752;37.884;2023-02-02T00:38:41;97973.09;;;28.56;25.25
54816;BME280;40715;55.752;37.884;2023-02-02T00:41:08;97970.97;;;28.52;24.94
54816;BME280;40715;55.752;37.884;2023-02-02T00:43:35;97974.69;;;28.51;24.83
54816;BME280;40715;55.752;37.884;2023-02-02T00:46:02;97976.09;;;28.47;25.06
54816;BME280;40715;55.752;37.884;2023-02-02T00:48:29;97976.09;;;28.47;25.77
54816;BME280;40715;55.752;37.884;2023-02-02T00:50:56;97968.41;;;28.50;25.36
54816;BME280;40715;55.752;37.884;2023-02-02T00:53:23;97973.59;;;28.45;25.69
54816;BME280;40715;55.752;37.884;2023-02-02T00:55:50;97976.09;;;28.47;25.62
54816;BME280;40715;55.752;37.884;2023-02-02T00:58:17;97974.41;;;28.46;26.44
54816;BME280;40715;55.752;37.884;2023-02-02T01:00:45;97972.38;;;28.48;26.27
54816;BME280;40715;55.752;37.884;2023-02-02T01:03:12;97974.69;;;28.51;26.16
54816;BME280;40715;55.752;37.884;2023-02-02T01:05:39;97970.78;;;28.53;26.23
54816;BME280;40715;55.752;37.884;2023-02-02T01:08:06;97973.72;;;28.58;26.08
54816;BME280;40715;55.752;37.884;2023-02-02T01:10:34;97960.19;;;28.58;25.83
54816;BME280;40715;55.752;37.884;2023-02-02T01:13:01;97967.41;;;28.66;25.67
54816;BME280;40715;55.752;37.884;2023-02-02T01:15:28;97964.50;;;28.68;25.95
54816;BME280;40715;55.752;37.884;2023-02-02T01:17:56;97967.28;;;28.74;25.95
54816;BME280;40715;55.752;37.884;2023-02-02T01:20:23;97962.72;;;28.75;24.70
54816;BME280;40715;55.752;37.884;2023-02-02T01:22:51;97966.63;;;28.72;25.49
54816;BME280;40715;55.752;37.884;2023-02-02T01:25:18;97967.56;;;28.80;25.70
54816;BME280;40715;55.752;37.884;2023-02-02T01:27:45;97964.25;;;28.84;25.96
54816;BME280;40715;55.752;37.884;2023-02-02T01:30:13;97972.19;;;28.86;25.87
54816;BME280;40715;55.752;37.884;2023-02-02T01:32:40;97960.13;;;28.88;25.71
54816;BME280;40715;55.752;37.884;2023-02-02T01:35:07;97961.16;;;28.87;26.04
54816;BME280;40715;55.752;37.884;2023-02-02T01:37:37;97953.38;;;28.78;24.76
54816;BME280;40715;55.752;37.884;2023-02-02T01:40:05;97961.41;;;28.71;24.25
54816;BME280;40715;55.752;37.884;2023-02-02T01:42:32;97958.81;;;28.63;23.61
54816;BME280;40715;55.752;37.884;2023-02-02T01:45:27;97961.06;;;28.59;24.50
54816;BME280;40715;55.752;37.884;2023-02-02T01:47:57;97959.47;;;28.50;25.37
54816;BME280;40715;55.752;37.884;2023-02-02T01:50:30;97961.97;;;28.51;24.61
54816;BME280;40715;55.752;37.884;2023-02-02T01:52:59;97959.47;;;28.50;24.55
54816;BME280;40715;55.752;37.884;2023-02-02T01:55:30;97967.97;;;28.47;24.32
54816;BME280;40715;55.752;37.884;2023-02-02T01:58:28;97948.19;;;28.46;25.13
54816;BME280;40715;55.752;37.884;2023-02-02T02:00:56;97953.50;;;28.39;25.77
54816;BME280;40715;55.752;37.884;2023-02-02T02:03:26;97956.22;;;28.39;25.92
54816;BME280;40715;55.752;37.884;2023-02-02T02:06:06;97961.44;;;28.41;26.34
54816;BME280;40715;55.752;37.884;2023-02-02T02:08:59;97954.72;;;28.52;25.66
54816;BME280;40715;55.752;37.884;2023-02-02T02:11:30;97966.09;;;28.47;25.17
54816;BME280;40715;55.752;37.884;2023-02-02T02:13:59;97952.75;;;28.46;25.34
54816;BME280;40715;55.752;37.884;2023-02-02T02:16:53;97953.84;;;28.51;25.33
54816;BME280;40715;55.752;37.884;2023-02-02T02:22:13;97964.22;;;28.63;25.29
54816;BME280;40715;55.752;37.884;2023-02-02T02:28:17;97972.06;;;28.72;25.76
54816;BME280;40715;55.752;37.884;2023-02-02T02:34:15;97963.81;;;28.81;25.74
54816;BME280;40715;55.752;37.884;2023-02-02T02:36:55;97962.25;;;28.71;25.92
54816;BME280;40715;55.752;37.884;2023-02-02T02:39:37;97967.66;;;28.71;25.48
54816;BME280;40715;55.752;37.884;2023-02-02T02:42:13;97970.44;;;28.78;25.86
54816;BME280;40715;55.752;37.884;2023-02-02T02:44:42;97974.66;;;28.81;25.98
54816;BME280;40715;55.752;37.884;2023-02-02T02:47:09;97968.75;;;28.77;25.96
54816;BME280;40715;55.752;37.884;2023-02-02T02:49:46;97976.16;;;28.83;25.97
54816;BME280;40715;55.752;37.884;2023-02-02T02:52:13;97977.22;;;29.25;25.42
54816;BME280;40715;55.752;37.884;2023-02-02T02:54:50;97981.19;;;28.86;25.45
54816;BME280;40715;55.752;37.884;2023-02-02T02:57:43;97988.41;;;28.79;24.57
54816;BME280;40715;55.752;37.884;2023-02-02T03:00:45;97976.50;;;28.80;25.63
54816;BME280;40715;55.752;37.884;2023-02-02T03:10:59;97976.44;;;28.58;28.54
54816;BME280;40715;55.752;37.884;2023-02-02T03:13:28;97982.38;;;28.62;28.49
54816;BME280;40715;55.752;37.884;2023-02-02T03:15:57;97981.50;;;28.62;29.24
54816;BME280;40715;55.752;37.884;2023-02-02T03:18:27;97981.50;;;28.62;29.24
54816;BME280;40715;55.752;37.884;2023-02-02T03:20:55;97980.66;;;28.61;29.45
54816;BME280;40715;55.752;37.884;2023-02-02T03:23:22;97985.25;;;28.61;29.70
54816;BME280;40715;55.752;37.884;2023-02-02T03:25:49;97978.13;;;28.59;29.39
54816;BME280;40715;55.752;37.884;2023-02-02T03:28:17;97983.88;;;28.65;29.75
54816;BME280;40715;55.752;37.884;2023-02-02T03:30:45;97988.03;;;28.67;29.53
54816;BME280;40715;55.752;37.884;2023-02-02T03:33:14;97994.75;;;28.71;29.68
54816;BME280;40715;55.752;37.884;2023-02-02T03:35:41;97987.09;;;28.75;29.71
54816;BME280;40715;55.752;37.884;2023-02-02T03:38:08;97998.19;;;28.80;29.40
54816;BME280;40715;55.752;37.884;2023-02-02T03:40:35;97997.16;;;28.81;29.55
54816;BME280;40715;55.752;37.884;2023-02-02T03:43:02;97999.69;;;28.83;29.29
54816;BME280;40715;55.752;37.884;2023-02-02T03:45:29;98002.00;;;28.86;29.38
54816;BME280;40715;55.752;37.884;2023-02-02T03:47:57;98004.81;;;28.92;29.02
54816;BME280;40715;55.752;37.884;2023-02-02T03:50:24;98004.03;;;28.99;28.81
54816;BME280;40715;55.752;37.884;2023-02-02T03:52:52;97995.88;;;28.99;28.90
54816;BME280;40715;55.752;37.884;2023-02-02T03:55:19;98003.28;;;29.05;28.68
54816;BME280;40715;55.752;37.884;2023-02-02T03:57:47;98002.41;;;29.04;28.73
54816;BME280;40715;55.752;37.884;2023-02-02T04:00:14;98004.38;;;29.10;28.75
54816;BME280;40715;55.752;37.884;2023-02-02T04:02:41;98007.72;;;29.13;28.57
54816;BME280;40715;55.752;37.884;2023-02-02T04:05:08;97997.25;;;29.09;27.35
54816;BME280;40715;55.752;37.884;2023-02-02T04:07:35;98003.72;;;29.08;27.81
54816;BME280;40715;55.752;37.884;2023-02-02T04:10:03;98007.00;;;29.04;28.35
54816;BME280;40715;55.752;37.884;2023-02-02T04:12:30;98006.50;;;28.93;26.68
54816;BME280;40715;55.752;37.884;2023-02-02T04:14:57;98004.91;;;28.84;27.78
54816;BME280;40715;55.752;37.884;2023-02-02T04:17:24;98010.34;;;28.84;27.04
54816;BME280;40715;55.752;37.884;2023-02-02T04:19:51;98005.69;;;28.78;26.77
54816;BME280;40715;55.752;37.884;2023-02-02T04:22:24;98001.88;;;28.72;26.07
54816;BME280;40715;55.752;37.884;2023-02-02T04:24:52;98001.59;;;28.67;25.94
54816;BME280;40715;55.752;37.884;2023-02-02T04:27:19;98005.91;;;28.62;26.50
54816;BME280;40715;55.752;37.884;2023-02-02T04:29:46;97989.44;;;28.48;25.36
54816;BME280;40715;55.752;37.884;2023-02-02T04:32:17;98001.13;;;28.49;27.12
54816;BME280;40715;55.752;37.884;2023-02-02T04:34:44;98002.81;;;28.50;26.88
54816;BME280;40715;55.752;37.884;2023-02-02T04:37:11;97998.06;;;28.52;26.75
54816;BME280;40715;55.752;37.884;2023-02-02T04:39:38;98010.00;;;28.57;27.27
54816;BME280;40715;55.752;37.884;2023-02-02T04:42:05;98002.50;;;28.59;27.04
54816;BME280;40715;55.752;37.884;2023-02-02T04:44:32;98003.53;;;28.58;25.51
54816;BME280;40715;55.752;37.884;2023-02-02T04:46:59;97996.47;;;28.57;26.93
54816;BME280;40715;55.752;37.884;2023-02-02T04:49:26;98009.28;;;28.64;26.69
54816;BME280;40715;55.752;37.884;2023-02-02T04:51:53;98013.47;;;28.66;26.71
54816;BME280;40715;55.752;37.884;2023-02-02T04:54:21;98009.28;;;28.64;26.13
54816;BME280;40715;55.752;37.884;2023-02-02T04:56:48;98023.25;;;28.67;25.69
54816;BME280;40715;55.752;37.884;2023-02-02T04:59:14;98013.09;;;28.69;26.43
54816;BME280;40715;55.752;37.884;2023-02-02T05:01:41;98018.41;;;28.78;26.75
54816;BME280;40715;55.752;37.884;2023-02-02T05:04:10;98016.81;;;28.83;26.13
54816;BME280;40715;55.752;37.884;2023-02-02T05:06:37;98011.63;;;28.88;26.68
54816;BME280;40715;55.752;37.884;2023-02-02T05:09:04;98020.44;;;28.90;25.91
54816;BME280;40715;55.752;37.884;2023-02-02T05:11:31;98015.44;;;28.94;24.99
54816;BME280;40715;55.752;37.884;2023-02-02T05:13:58;98022.75;;;28.93;25.80
54816;BME280;40715;55.752;37.884;2023-02-02T05:16:25;98025.06;;;28.97;26.18
54816;BME280;40715;55.752;37.884;2023-02-02T05:18:55;98032.81;;;29.00;25.98
54816;BME280;40715;55.752;37.884;2023-02-02T05:21:22;98029.28;;;28.99;26.44
54816;BME280;40715;55.752;37.884;2023-02-02T05:23:50;98037.41;;;28.99;26.27
54816;BME280;40715;55.752;37.884;2023-02-02T05:26:21;98039.00;;;28.93;26.33
54816;BME280;40715;55.752;37.884;2023-02-02T05:28:48;98033.13;;;28.90;24.97
54816;BME280;40715;55.752;37.884;2023-02-02T05:31:16;98035.88;;;28.75;24.79
54816;BME280;40715;55.752;37.884;2023-02-02T05:33:43;98029.53;;;28.68;25.11
54816;BME280;40715;55.752;37.884;2023-02-02T05:36:10;98031.78;;;28.64;25.72
54816;BME280;40715;55.752;37.884;2023-02-02T05:38:37;98028.69;;;28.67;24.70
54816;BME280;40715;55.752;37.884;2023-02-02T05:41:04;98029.34;;;28.69;25.14
54816;BME280;40715;55.752;37.884;2023-02-02T05:43:32;98040.38;;;28.68;25.82
54816;BME280;40715;55.752;37.884;2023-02-02T05:45:59;98039.31;;;28.69;25.96
54816;BME280;40715;55.752;37.884;2023-02-02T05:48:26;98028.13;;;28.72;25.87
54816;BME280;40715;55.752;37.884;2023-02-02T05:51:01;98039.81;;;28.72;25.34
54816;BME280;40715;55.752;37.884;2023-02-02T05:53:29;98033.56;;;28.72;25.25
54816;BME280;40715;55.752;37.884;2023-02-02T05:55:57;98038.69;;;28.67;25.31
54816;BME280;40715;55.752;37.884;2023-02-02T05:58:23;98038.06;;;28.65;25.25
54816;BME280;40715;55.752;37.884;2023-02-02T06:00:51;98043.63;;;28.63;24.68
54816;BME280;40715;55.752;37.884;2023-02-02T06:03:21;98043.28;;;28.66;24.93
54816;BME280;40715;55.752;37.884;2023-02-02T06:05:48;98039.31;;;28.69;25.28
54816;BME280;40715;55.752;37.884;2023-02-02T06:08:15;98041.69;;;28.72;24.52
54816;BME280;40715;55.752;37.884;2023-02-02T06:10:43;98049.63;;;28.73;24.93
54816;BME280;40715;55.752;37.884;2023-02-02T06:13:10;98050.66;;;28.72;24.51
54816;BME280;40715;55.752;37.884;2023-02-02T06:15:37;98051.28;;;28.74;24.51
54816;BME280;40715;55.752;37.884;2023-02-02T06:18:04;98053.25;;;28.81;23.95
54816;BME280;40715;55.752;37.884;2023-02-02T06:20:34;98056.88;;;28.88;24.23
54816;BME280;40715;55.752;37.884;2023-02-02T06:23:01;98057.53;;;28.90;24.55
54816;BME280;40715;55.752;37.884;2023-02-02T06:25:28;98058.81;;;28.94;23.70
54816;BME280;40715;55.752;37.884;2023-02-02T06:27:59;98062.00;;;28.98;24.05
54816;BME280;40715;55.752;37.884;2023-02-02T06:30:27;98053.00;;;28.97;24.48
54816;BME280;40715;55.752;37.884;2023-02-02T06:32:54;98060.13;;;28.98;24.40
54816;BME280;40715;55.752;37.884;2023-02-02T06:35:20;98068.25;;;28.98;24.58
54816;BME280;40715;55.752;37.884;2023-02-02T06:37:48;98066.94;;;28.94;24.08
54816;BME280;40715;55.752;37.884;2023-02-02T06:40:15;98062.09;;;28.89;24.54
54816;BME280;40715;55.752;37.884;2023-02-02T06:42:42;98053.69;;;28.84;23.37
54816;BME280;40715;55.752;37.884;2023-02-02T06:45:09;98056.53;;;28.76;22.94
54816;BME280;40715;55.752;37.884;2023-02-02T06:47:36;98059.34;;;28.68;22.58
54816;BME280;40715;55.752;37.884;2023-02-02T06:50:03;98060.44;;;28.58;23.03
54816;BME280;40715;55.752;37.884;2023-02-02T06:52:30;98053.50;;;28.56;23.10
54816;BME280;40715;55.752;37.884;2023-02-02T06:54:57;98052.25;;;28.52;22.72
54816;BME280;40715;55.752;37.884;2023-02-02T06:57:24;98052.50;;;28.42;23.32
54816;BME280;40715;55.752;37.884;2023-02-02T06:59:51;98051.94;;;28.47;23.45
54816;BME280;40715;55.752;37.884;2023-02-02T07:02:18;98052.78;;;28.47;24.35
54816;BME280;40715;55.752;37.884;2023-02-02T07:04:45;98066.41;;;28.54;23.78
54816;BME280;40715;55.752;37.884;2023-02-02T07:07:12;98061.56;;;28.49;22.81
54816;BME280;40715;55.752;37.884;2023-02-02T07:09:39;98067.38;;;28.46;23.94
54816;BME280;40715;55.752;37.884;2023-02-02T07:12:06;98067.81;;;28.50;23.71
54816;BME280;40715;55.752;37.884;2023-02-02T07:14:33;98067.63;;;28.51;24.08
54816;BME280;40715;55.752;37.884;2023-02-02T07:17:00;98070.34;;;28.51;23.31
54816;BME280;40715;55.752;37.884;2023-02-02T07:19:27;98066.41;;;28.54;23.67
54816;BME280;40715;55.752;37.884;2023-02-02T07:21:54;98071.19;;;28.52;24.34
54816;BME280;40715;55.752;37.884;2023-02-02T07:24:21;98067.34;;;28.61;24.70
54816;BME280;40715;55.752;37.884;2023-02-02T07:26:48;98068.50;;;28.67;23.47
54816;BME280;40715;55.752;37.884;2023-02-02T07:29:15;98066.06;;;28.72;23.93
54816;BME280;40715;55.752;37.884;2023-02-02T07:31:42;98069.22;;;28.75;24.24
54816;BME280;40715;55.752;37.884;2023-02-02T07:34:09;98077.66;;;28.81;24.38
54816;BME280;40715;55.752;37.884;2023-02-02T07:36:36;98074.34;;;28.85;23.98
54816;BME280;40715;55.752;37.884;2023-02-02T07:39:04;98067.53;;;28.89;24.13
54816;BME280;40715;55.752;37.884;2023-02-02T07:41:33;98075.94;;;28.95;24.78
54816;BME280;40715;55.752;37.884;2023-02-02T07:44:00;98080.13;;;28.97;24.87
54816;BME280;40715;55.752;37.884;2023-02-02T07:46:27;98080.59;;;29.01;24.91
54816;BME280;40715;55.752;37.884;2023-02-02T07:48:55;98080.84;;;29.06;25.09
54816;BME280;40715;55.752;37.884;2023-02-02T07:51:24;98089.25;;;29.11;25.22
54816;BME280;40715;55.752;37.884;2023-02-02T07:53:52;98097.41;;;29.11;25.12
54816;BME280;40715;55.752;37.884;2023-02-02T07:56:22;98093.66;;;29.12;24.96
54816;BME280;40715;55.752;37.884;2023-02-02T07:58:54;98092.34;;;29.08;24.22
54816;BME280;40715;55.752;37.884;2023-02-02T08:01:22;98095.91;;;29.08;23.50
54816;BME280;40715;55.752;37.884;2023-02-02T08:03:53;98089.19;;;29.04;24.29
54816;BME280;40715;55.752;37.884;2023-02-02T08:06:32;98094.25;;;29.07;24.63
54816;BME280;40715;55.752;37.884;2023-02-02T08:09:01;98085.34;;;28.99;24.84
54816;BME280;40715;55.752;37.884;2023-02-02T08:11:28;98082.00;;;28.97;25.18
54816;BME280;40715;55.752;37.884;2023-02-02T08:13:58;98082.00;;;28.97;25.46
54816;BME280;40715;55.752;37.884;2023-02-02T08:16:26;98086.94;;;28.93;25.21
54816;BME280;40715;55.752;37.884;2023-02-02T08:18:54;98081.09;;;28.89;24.60
54816;BME280;40715;55.752;37.884;2023-02-02T08:21:21;98086.22;;;28.84;24.79
54816;BME280;40715;55.752;37.884;2023-02-02T08:23:50;98085.19;;;28.85;24.43
54816;BME280;40715;55.752;37.884;2023-02-02T08:26:26;98080.59;;;28.86;25.16
54816;BME280;40715;55.752;37.884;2023-02-02T08:28:56;98082.50;;;28.85;25.04
54816;BME280;40715;55.752;37.884;2023-02-02T08:31:27;98086.22;;;28.84;25.18
54816;BME280;40715;55.752;37.884;2023-02-02T08:33:54;98093.34;;;28.85;25.32
54816;BME280;40715;55.752;37.884;2023-02-02T08:36:25;98081.00;;;28.83;25.31
54816;BME280;40715;55.752;37.884;2023-02-02T08:38:52;98083.13;;;28.87;24.97
54816;BME280;40715;55.752;37.884;2023-02-02T08:41:22;98086.03;;;28.86;25.35
54816;BME280;40715;55.752;37.884;2023-02-02T08:43:49;98081.09;;;28.89;25.44
54816;BME280;40715;55.752;37.884;2023-02-02T08:46:18;98090.03;;;28.90;24.74
54816;BME280;40715;55.752;37.884;2023-02-02T08:48:46;98082.59;;;28.92;23.95
54816;BME280;40715;55.752;37.884;2023-02-02T08:51:15;98081.38;;;28.95;24.42
54816;BME280;40715;55.752;37.884;2023-02-02T08:53:44;98080.97;;;28.98;24.67
54816;BME280;40715;55.752;37.884;2023-02-02T08:56:20;98081.50;;;29.08;25.42
54816;BME280;40715;55.752;37.884;2023-02-02T08:58:56;98079.91;;;29.14;25.34
54816;BME280;40715;55.752;37.884;2023-02-02T09:01:30;98076.63;;;29.18;24.98
54816;BME280;40715;55.752;37.884;2023-02-02T09:04:00;98083.72;;;29.19;24.66
54816;BME280;40715;55.752;37.884;2023-02-02T09:06:32;98075.41;;;29.21;24.58
54816;BME280;40715;55.752;37.884;2023-02-02T09:09:00;98081.28;;;29.24;24.90
54816;BME280;40715;55.752;37.884;2023-02-02T09:11:27;98086.34;;;29.27;25.19
54816;BME280;40715;55.752;37.884;2023-02-02T09:13:56;98087.81;;;29.30;25.56
54816;BME280;40715;55.752;37.884;2023-02-02T09:16:25;98082.59;;;29.29;25.48
54816;BME280;40715;55.752;37.884;2023-02-02T09:18:53;98076.16;;;29.30;24.40
54816;BME280;40715;55.752;37.884;2023-02-02T09:21:21;98080.06;;;29.27;25.32
54816;BME280;40715;55.752;37.884;2023-02-02T09:23:49;98078.09;;;29.21;24.73
54816;BME280;40715;55.752;37.884;2023-02-02T09:28:51;98073.19;;;29.09;24.36
54816;BME280;40715;55.752;37.884;2023-02-02T09:31:18;98075.25;;;29.07;25.29
54816;BME280;40715;55.752;37.884;2023-02-02T09:33:45;98080.84;;;29.06;25.69
54816;BME280;40715;55.752;37.884;2023-02-02T09:36:15;98075.25;;;29.07;25.90
54816;BME280;40715;55.752;37.884;2023-02-02T09:38:43;98067.47;;;29.04;24.62
54816;BME280;40715;55.752;37.884;2023-02-02T09:54:51;98080.13;;;28.97;24.99
54816;BME280;40715;55.752;37.884;2023-02-02T09:57:24;98071.34;;;28.95;25.61
54816;BME280;40715;55.752;37.884;2023-02-02T09:59:53;98070.13;;;28.98;25.33
54816;BME280;40715;55.752;37.884;2023-02-02T10:02:27;98068.91;;;29.00;25.66
54816;BME280;40715;55.752;37.884;2023-02-02T10:05:03;98062.72;;;29.06;25.79
54816;BME280;40715;55.752;37.884;2023-02-02T10:07:41;98065.53;;;29.13;25.77
54816;BME280;40715;55.752;37.884;2023-02-02T10:10:18;98065.53;;;29.13;25.09
54816;BME280;40715;55.752;37.884;2023-02-02T10:13:04;98059.44;;;29.26;25.37
54816;BME280;40715;55.752;37.884;2023-02-02T10:15:41;98058.50;;;29.19;25.14
54816;BME280;40715;55.752;37.884;2023-02-02T10:21:02;98066.97;;;29.31;25.33
54816;BME280;40715;55.752;37.884;2023-02-02T10:23:37;98062.97;;;29.26;25.17
54816;BME280;40715;55.752;37.884;2023-02-02T10:34:40;98062.53;;;29.44;26.69
54816;BME280;40715;55.752;37.884;2023-02-02T10:38:12;98054.00;;;29.48;26.63
54816;BME280;40715;55.752;37.884;2023-02-02T10:45:51;98048.19;;;29.29;25.83
54816;BME280;40715;55.752;37.884;2023-02-02T10:48:21;98044.75;;;29.20;25.91
54816;BME280;40715;55.752;37.884;2023-02-02T10:50:53;98049.69;;;29.17;26.74
54816;BME280;40715;55.752;37.884;2023-02-02T10:53:21;98055.50;;;29.14;26.79
54816;BME280;40715;55.752;37.884;2023-02-02T10:55:57;98055.69;;;29.12;25.10
54816;BME280;40715;55.752;37.884;2023-02-02T10:58:36;98053.44;;;29.16;26.19
54816;BME280;40715;55.752;37.884;2023-02-02T11:01:07;98054.47;;;29.15;27.10
54816;BME280;40715;55.752;37.884;2023-02-02T11:03:37;98048.88;;;29.16;25.93
54816;BME280;40715;55.752;37.884;2023-02-02T11:06:06;98052.31;;;29.10;24.81
54816;BME280;40715;55.752;37.884;2023-02-02T11:08:53;98054.00;;;29.11;26.33
54816;BME280;40715;55.752;37.884;2023-02-02T11:11:37;98047.09;;;29.08;25.91
54816;BME280;40715;55.752;37.884;2023-02-02T11:16:39;98053.38;;;29.09;27.12
54816;BME280;40715;55.752;37.884;2023-02-02T11:21:53;98051.00;;;29.21;27.25
54816;BME280;40715;55.752;37.884;2023-02-02T11:24:29;98052.22;;;29.18;27.22
54816;BME280;40715;55.752;37.884;2023-02-02T11:27:22;98051.09;;;29.13;26.17
54816;BME280;40715;55.752;37.884;2023-02-02T11:29:55;98055.91;;;29.10;26.30
54816;BME280;40715;55.752;37.884;2023-02-02T11:32:28;98052.53;;;29.08;26.58
54816;BME280;40715;55.752;37.884;2023-02-02T11:37:34;98062.03;;;29.19;26.74
54816;BME280;40715;55.752;37.884;2023-02-02T11:42:46;98069.16;;;29.20;26.53
54816;BME280;40715;55.752;37.884;2023-02-02T11:45:16;98067.25;;;29.21;26.74
54816;BME280;40715;55.752;37.884;2023-02-02T11:47:45;98070.63;;;29.23;26.39
54816;BME280;40715;55.752;37.884;2023-02-02T11:50:25;98072.03;;;29.34;26.56
54816;BME280;40715;55.752;37.884;2023-02-02T11:52:53;98076.97;;;29.30;26.03
54816;BME280;40715;55.752;37.884;2023-02-02T11:55:27;98070.91;;;29.28;26.52
54816;BME280;40715;55.752;37.884;2023-02-02T11:58:18;98070.59;;;29.38;24.67
54816;BME280;40715;55.752;37.884;2023-02-02T12:00:49;98071.31;;;29.25;25.48
54816;BME280;40715;55.752;37.884;2023-02-02T12:03:32;98078.22;;;29.27;25.68
54816;BME280;40715;55.752;37.884;2023-02-02T12:05:59;98084.38;;;29.21;23.71
54816;BME280;40715;55.752;37.884;2023-02-02T12:08:29;98084.84;;;29.10;23.06
54816;BME280;40715;55.752;37.884;2023-02-02T12:11:01;98083.94;;;29.03;23.36
54816;BME280;40715;55.752;37.884;2023-02-02T12:16:52;98087.44;;;28.97;24.64
54816;BME280;40715;55.752;37.884;2023-02-02T12:22:11;98092.84;;;28.97;24.98
54816;BME280;40715;55.752;37.884;2023-02-02T12:27:50;98091.34;;;28.94;25.11
54816;BME280;40715;55.752;37.884;2023-02-02T12:33:47;98087.66;;;29.17;24.67
54816;BME280;40715;55.752;37.884;2023-02-02T12:36:39;98085.72;;;29.10;25.24
54816;BME280;40715;55.752;37.884;2023-02-02T12:42:32;98080.50;;;29.09;25.24
54816;BME280;40715;55.752;37.884;2023-02-02T12:50:39;98076.19;;;29.00;24.38
54816;BME280;40715;55.752;37.884;2023-02-02T12:56:20;98092.94;;;29.03;23.44
54816;BME280;40715;55.752;37.884;2023-02-02T13:02:03;98098.91;;;28.99;23.24
54816;BME280;40715;55.752;37.884;2023-02-02T13:07:31;98096.47;;;29.04;22.90
54816;BME280;40715;55.752;37.884;2023-02-02T13:10:23;98089.75;;;29.00;23.51
54816;BME280;40715;55.752;37.884;2023-02-02T13:12:56;98098.66;;;28.93;24.26
54816;BME280;40715;55.752;37.884;2023-02-02T13:15:32;98096.19;;;28.99;23.53
54816;BME280;40715;55.752;37.884;2023-02-02T13:18:10;98086.41;;;28.98;22.05
54816;BME280;40715;55.752;37.884;2023-02-02T13:20:50;98093.88;;;28.96;22.26
54816;BME280;40715;55.752;37.884;2023-02-02T13:23:23;98088.09;;;28.84;22.34
54816;BME280;40715;55.752;37.884;2023-02-02T13:26:06;98091.63;;;28.84;22.02
54816;BME280;40715;55.752;37.884;2023-02-02T13:28:47;98093.25;;;28.79;22.02
54816;BME280;40715;55.752;37.884;2023-02-02T13:37:26;98081.41;;;28.65;22.43
54816;BME280;40715;55.752;37.884;2023-02-02T13:40:19;98084.81;;;28.58;22.77
54816;BME280;40715;55.752;37.884;2023-02-02T13:43:18;98083.44;;;28.78;23.06
54816;BME280;40715;55.752;37.884;2023-02-02T13:46:27;98085.19;;;28.85;23.55
54816;BME280;40715;55.752;37.884;2023-02-02T13:49:35;98095.16;;;29.00;23.45
54816;BME280;40715;55.752;37.884;2023-02-02T13:58:19;98100.44;;;28.71;22.65
54816;BME280;40715;55.752;37.884;2023-02-02T14:00:55;98102.13;;;28.72;22.92
54816;BME280;40715;55.752;37.884;2023-02-02T14:03:40;98085.09;;;28.79;23.02
54816;BME280;40715;55.752;37.884;2023-02-02T14:06:22;98091.72;;;28.91;23.48
54816;BME280;40715;55.752;37.884;2023-02-02T14:09:02;98092.66;;;28.98;23.98
54816;BME280;40715;55.752;37.884;2023-02-02T14:11:33;98094.53;;;28.98;23.17
54816;BME280;40715;55.752;37.884;2023-02-02T14:16:49;98097.69;;;29.01;22.17
54816;BME280;40715;55.752;37.884;2023-02-02T14:19:18;98101.06;;;29.03;23.73
54816;BME280;40715;55.752;37.884;2023-02-02T14:24:42;98106.34;;;29.12;23.79
54816;BME280;40715;55.752;37.884;2023-02-02T14:29:58;98105.34;;;29.27;23.26
54816;BME280;40715;55.752;37.884;2023-02-02T14:37:46;98117.06;;;28.98;22.03
54816;BME280;40715;55.752;37.884;2023-02-02T14:48:40;98131.66;;;28.82;23.86
54816;BME280;40715;55.752;37.884;2023-02-02T14:51:13;98137.06;;;28.82;23.78
54816;BME280;40715;55.752;37.884;2023-02-02T14:53:51;98132.28;;;28.84;24.20
54816;BME280;40715;55.752;37.884;2023-02-02T14:56:19;98137.06;;;28.82;24.78
54816;BME280;40715;55.752;37.884;2023-02-02T15:03:53;98141.00;;;28.95;25.17
54816;BME280;40715;55.752;37.884;2023-02-02T15:06:36;98142.94;;;29.01;24.86
54816;BME280;40715;55.752;37.884;2023-02-02T15:09:42;98140.28;;;29.22;24.62
54816;BME280;40715;55.752;37.884;2023-02-02T15:12:43;98152.44;;;29.12;24.66
54816;BME280;40715;55.752;37.884;2023-02-02T15:15:25;98145.91;;;29.06;25.11
54816;BME280;40715;55.752;37.884;2023-02-02T15:18:15;98147.59;;;29.07;24.97
54816;BME280;40715;55.752;37.884;2023-02-02T15:20:47;98146.25;;;28.96;24.06
54816;BME280;40715;55.752;37.884;2023-02-02T15:23:40;98139.22;;;29.02;24.46
54816;BME280;40715;55.752;37.884;2023-02-02T15:33:49;98154.16;;;29.13;24.06